Carlisle, New York
Current Conditions -  °F | °C
As of 4:55 AM on Sunday 23 Nov 2014 (Local Time) from KNY0 Reporting Station
Overcast Overcast  
Wind Chill: 37°   Ceiling: 3100
Heat Index: 37°   Visibility: 7mi
Dew Point: 35°   Wind: 3mph
Humidity: 93%   Direction: 210°SSW
Pressure: 30.04"   Gusts: NA
Location:  42.76°N, 74.44°W
Report Text: KNY0 230955Z AUTO 21003KT 7SM BKN031 OVC060 03/02 A3004 RMK AO2 T00250015
Loading
Personal Weather Stations






























Interactive Weather Map New forecast layout! Learn more

10-Day Weather Forecast

Advertisements
Track Severe Weather on mobile